createdAt,value
2022-12-18T00:16:45.794Z,101882.39
2022-12-18T00:38:29.126Z,101895.68
2022-12-18T01:00:15.641Z,101922.80
2022-12-18T01:43:57.947Z,101981.57
2022-12-18T02:05:47.016Z,101989.16
2022-12-18T02:38:16.944Z,102010.87
2022-12-18T03:00:09.922Z,102031.39
2022-12-18T03:21:59.424Z,102037.28
2022-12-18T03:43:51.327Z,102048.13
2022-12-18T04:05:39.088Z,102061.40
2022-12-18T04:27:26.059Z,102087.86
2022-12-18T04:49:12.503Z,102102.63
2022-12-18T05:11:05.336Z,102127.30
2022-12-18T05:32:51.244Z,102144.10
2022-12-18T05:54:37.442Z,102160.30
2022-12-18T06:16:21.853Z,102181.15
2022-12-18T06:38:07.672Z,102205.16
2022-12-18T06:59:53.476Z,102232.89
2022-12-18T07:21:39.386Z,102249.66
2022-12-18T07:43:25.131Z,102280.17
2022-12-18T08:05:09.950Z,102302.46
2022-12-18T08:27:13.459Z,102320.96
2022-12-18T08:49:01.435Z,102348.60
2022-12-18T09:10:50.033Z,102359.73
2022-12-18T09:32:35.823Z,102333.25
2022-12-18T09:54:22.666Z,102298.73
2022-12-18T10:16:18.708Z,102300.59
2022-12-18T10:38:07.779Z,102320.27
2022-12-18T10:59:58.704Z,102308.60
2022-12-18T11:21:45.139Z,102317.77
2022-12-18T11:43:34.206Z,102344.48
2022-12-18T12:13:26.364Z,102309.69
2022-12-18T12:35:27.383Z,102305.75
2022-12-18T12:57:18.175Z,102297.95
2022-12-18T13:28:17.797Z,102302.88
2022-12-18T13:50:11.140Z,102303.02
2022-12-18T14:12:18.610Z,102331.05
2022-12-18T14:43:17.700Z,102365.33
2022-12-18T15:05:12.701Z,102370.83
2022-12-18T15:43:44.398Z,102368.76
2022-12-18T16:05:30.898Z,102342.88
2022-12-18T16:27:16.648Z,102320.75
2022-12-18T16:49:03.196Z,102309.78
2022-12-18T17:10:48.891Z,102312.16
2022-12-18T17:32:34.685Z,102325.85
2022-12-18T17:54:20.599Z,102331.13
2022-12-18T18:16:07.063Z,102327.93
2022-12-18T18:37:52.912Z,102319.04
2022-12-18T18:59:39.432Z,102306.02
2022-12-18T19:43:25.180Z,102313.59
2022-12-18T20:05:14.116Z,102293.69
2022-12-18T20:43:45.058Z,102286.33
2022-12-18T21:05:31.248Z,102276.59
2022-12-18T21:27:18.121Z,102285.73
2022-12-18T21:49:05.296Z,102271.33
2022-12-18T22:10:50.957Z,102232.31
2022-12-18T22:43:40.548Z,102204.34
2022-12-18T23:05:26.293Z,102175.80
2022-12-18T23:27:12.330Z,102151.11
2022-12-18T23:49:00.187Z,102136.23
